Time;durP1;ratioP1;P1;durP2;ratioP2;P2;SDS_P1;SDS_P2;PMS_P1;PMS_P2;Temp;Humidity;BMP_temperature;BMP_pressure;BME280_temperature;BME280_humidity;BME280_pressure;Samples;Min_cycle;Max_cycle;Signal;HPM_P1;HPM_P2
2021/11/20 00:01:17;;;;;;;10.90;1.50;;;11.90;99.90;;;10.54;100.00;101288.25;4944274;28;20047;-81
2021/11/20 00:03:45;;;;;;;13.88;2.63;;;11.90;99.90;;;10.43;100.00;101276.38;4941447;28;20138;-81
2021/11/20 00:06:35;;;;;;;9.40;1.60;;;;;;;10.44;100.00;101275.44;4945093;28;20076;-83
2021/11/20 00:09:03;;;;;;;16.63;2.22;;;11.80;99.90;;;10.41;100.00;101286.09;4954424;28;20033;-82
2021/11/20 00:11:37;;;;;;;14.30;1.60;;;11.80;99.90;;;10.40;100.00;101291.41;4916969;28;20040;-82
2021/11/20 00:14:05;;;;;;;8.60;1.58;;;11.80;99.90;;;10.41;100.00;101295.75;4934538;28;20065;-81
2021/11/20 00:16:32;;;;;;;11.70;1.65;;;11.80;99.90;;;10.35;100.00;101267.88;4913774;28;20117;-82
2021/11/20 00:18:59;;;;;;;9.25;1.85;;;11.80;99.90;;;10.39;100.00;101287.94;4917376;28;20025;-80
2021/11/20 00:21:46;;;;;;;21.92;1.73;;;11.80;99.90;;;10.36;100.00;101274.84;4909968;28;20116;-82
2021/11/20 00:25:11;;;;;;;16.45;1.70;;;11.70;99.90;;;10.26;100.00;101274.31;4931881;28;20161;-81
2021/11/20 00:27:41;;;;;;;7.60;1.30;;;;;;;10.19;100.00;101277.22;4961497;28;20031;-82
2021/11/20 00:30:23;;;;;;;13.02;1.33;;;11.60;99.90;;;10.19;100.00;101280.69;4955015;28;20065;-83
2021/11/20 00:33:06;;;;;;;11.57;1.52;;;11.50;99.90;;;10.18;100.00;101286.03;4910332;28;20022;-81
2021/11/20 00:35:41;;;;;;;9.23;2.00;;;11.60;99.90;;;10.14;100.00;101266.00;4930961;28;20030;-81
2021/11/20 00:38:10;;;;;;;12.18;1.52;;;11.50;99.90;;;10.08;100.00;101272.34;4921499;28;20038;-80
2021/11/20 00:40:47;;;;;;;12.70;1.58;;;11.40;99.90;;;9.97;100.00;101271.88;4952803;28;20080;-81
2021/11/20 00:44:58;;;;;;;8.65;1.17;;;11.30;99.90;;;9.88;100.00;101288.84;5021119;27;20370;-83
2021/11/20 00:47:25;;;;;;;11.65;1.67;;;11.30;99.90;;;9.84;100.00;101292.47;4981279;28;20137;-83
2021/11/20 00:49:52;;;;;;;10.43;2.80;;;11.30;99.90;;;9.90;100.00;101304.56;4936426;28;20042;-82
2021/11/20 00:52:21;;;;;;;13.52;1.83;;;11.40;99.90;;;9.94;100.00;101312.31;4964730;28;20451;-83
2021/11/20 00:54:53;;;;;;;5.25;2.13;;;11.10;99.90;;;9.87;100.00;101300.28;4951831;28;20029;-85
2021/11/20 00:57:19;;;;;;;8.85;1.20;;;11.20;99.90;;;9.85;100.00;101302.09;4961795;28;20491;-83
2021/11/20 00:59:45;;;;;;;11.18;2.05;;;11.20;99.90;;;9.84;100.00;101300.38;4946948;28;20533;-84
2021/11/20 01:02:35;;;;;;;8.93;1.38;;;;;;;9.88;100.00;101304.63;4960152;28;20132;-85
2021/11/20 01:05:04;;;;;;;5.63;1.30;;;11.30;99.90;;;9.90;100.00;101305.41;4973229;28;20053;-83
2021/11/20 01:07:41;;;;;;;11.75;1.67;;;11.30;99.90;;;9.94;100.00;101309.66;4955129;28;20058;-83
2021/11/20 01:10:21;;;;;;;14.90;1.55;;;11.30;99.90;;;9.83;100.00;101281.09;4964028;28;20115;-84
2021/11/20 01:12:49;;;;;;;4.90;1.25;;;11.20;99.90;;;9.74;100.00;101293.69;4951491;28;20067;-86
2021/11/20 01:18:26;;;;;;;11.15;1.67;;;;;;;9.85;100.00;101337.16;4960001;28;20039;-87
2021/11/20 01:21:03;;;;;;;8.50;1.50;;;;;;;9.97;100.00;101327.13;4998732;28;20028;-85
2021/11/20 01:23:37;;;;;;;7.50;1.42;;;11.40;99.90;;;10.00;100.00;101319.97;4973917;28;21243;-82
2021/11/20 01:26:05;;;;;;;7.45;1.20;;;11.40;99.90;;;10.10;100.00;101324.91;4971074;28;20045;-82
2021/11/20 01:28:40;;;;;;;8.48;1.38;;;11.50;99.90;;;10.03;100.00;101311.97;4932720;28;20108;-83
2021/11/20 01:31:12;;;;;;;6.30;1.23;;;;;;;10.10;100.00;101299.47;4961404;28;20024;-86
2021/11/20 01:33:40;;;;;;;12.13;1.40;;;11.50;99.90;;;10.14;100.00;101316.84;4951309;28;20112;-80
2021/11/20 01:36:12;;;;;;;6.10;1.52;;;11.60;99.90;;;10.17;100.00;101292.19;4923067;28;20018;-86
2021/11/20 01:38:39;;;;;;;11.40;1.67;;;11.60;99.90;;;10.17;100.00;101284.31;4970926;28;20060;-83
2021/11/20 01:41:05;;;;;;;13.27;1.48;;;11.60;99.90;;;10.15;100.00;101289.66;4986299;28;20128;-81
2021/11/20 01:43:37;;;;;;;10.15;1.70;;;11.60;99.90;;;10.17;100.00;101294.84;4972480;28;20065;-84
2021/11/20 01:46:28;;;;;;;5.15;1.20;;;;;;;10.15;100.00;101310.69;4928335;28;20572;-81
2021/11/20 01:49:12;;;;;;;9.50;1.60;;;11.60;99.90;;;10.15;100.00;101254.56;4975785;28;20033;-83
2021/11/20 01:52:10;;;;;;;5.57;1.10;;;11.60;99.90;;;10.17;100.00;101329.03;4954081;28;20060;-87
2021/11/20 01:55:04;;;;;;;7.40;1.40;;;11.60;99.90;;;10.22;100.00;101304.28;4972092;28;20506;-85
2021/11/20 01:57:49;;;;;;;6.57;1.95;;;11.60;99.90;;;10.21;100.00;101302.56;4935530;28;20047;-87
2021/11/20 02:01:10;;;;;;;9.57;1.25;;;11.60;99.90;;;10.16;100.00;101308.91;4949631;28;20132;-87
2021/11/20 02:04:30;;;;;;;3.65;1.15;;;11.70;99.90;;;10.21;100.00;101293.81;4936499;28;20204;-86
2021/11/20 02:07:11;;;;;;;8.88;1.23;;;11.60;99.90;;;10.21;100.00;101304.34;4896446;28;20046;-86
2021/11/20 02:10:00;;;;;;;190.30;171.07;;;11.60;99.90;;;10.20;100.00;101274.53;4955138;28;20073;-83
2021/11/20 02:13:06;;;;;;;9.88;1.33;;;11.60;99.90;;;10.24;100.00;101302.47;4944193;28;20045;-85
2021/11/20 02:15:59;;;;;;;5.47;1.00;;;11.60;99.90;;;10.20;100.00;101278.94;4953671;28;20064;-86
2021/11/20 02:18:38;;;;;;;12.30;1.15;;;11.60;99.90;;;10.25;100.00;101279.63;4947148;28;20167;-88
2021/11/20 02:21:32;;;;;;;7.63;1.05;;;11.60;99.90;;;10.24;100.00;101280.56;4981098;28;20516;-87
2021/11/20 02:23:58;;;;;;;6.70;1.13;;;11.60;99.90;;;10.24;100.00;101268.25;4950454;28;20095;-83
2021/11/20 02:26:23;;;;;;;4.25;1.13;;;11.60;99.90;;;10.18;100.00;101268.47;4937427;28;20568;-86
2021/11/20 02:29:00;;;;;;;6.75;1.35;;;11.60;99.90;;;10.17;100.00;101269.41;4978841;28;20033;-83
2021/11/20 02:31:26;;;;;;;10.00;1.20;;;11.60;99.90;;;10.20;100.00;101271.06;5019022;28;20172;-84
2021/11/20 02:33:52;;;;;;;6.50;1.38;;;;;;;10.21;100.00;101264.84;4982018;28;20124;-84
2021/11/20 02:36:22;;;;;;;5.68;1.50;;;11.60;99.90;;;10.20;100.00;101265.78;4970972;28;20763;-87
2021/11/20 02:39:31;;;;;;;4.47;1.15;;;11.60;99.90;;;10.11;100.00;101255.56;4974681;28;20503;-86
2021/11/20 02:42:01;;;;;;;5.03;0.93;;;11.50;99.90;;;10.08;100.00;101248.66;4945376;28;20059;-83
2021/11/20 02:44:30;;;;;;;8.98;1.10;;;11.50;99.90;;;10.09;100.00;101253.03;4939488;28;21102;-81
2021/11/20 02:47:07;;;;;;;7.90;1.15;;;11.50;99.90;;;10.10;100.00;101244.19;4981600;28;20029;-82
2021/11/20 02:49:37;;;;;;;3.35;1.27;;;11.50;99.90;;;10.01;100.00;101253.28;4930913;28;20029;-85
2021/11/20 02:52:19;;;;;;;3.38;0.77;;;11.40;99.90;;;10.00;100.00;101261.22;4951089;28;20025;-82
2021/11/20 02:54:47;;;;;;;10.65;1.38;;;11.50;99.90;;;10.03;100.00;101277.78;4952114;28;20021;-83
2021/11/20 02:57:23;;;;;;;8.13;1.40;;;11.50;99.90;;;10.04;100.00;101271.59;4935856;28;20034;-84
2021/11/20 02:59:49;;;;;;;5.82;1.38;;;11.50;99.90;;;10.08;100.00;101274.97;4954224;28;20045;-83
2021/11/20 03:02:20;;;;;;;2.28;0.88;;;11.40;99.90;;;10.12;100.00;101262.56;4919831;28;20030;-85
2021/11/20 03:04:49;;;;;;;7.53;1.00;;;;;;;10.11;100.00;101276.63;4912680;28;20038;-85
2021/11/20 03:07:16;;;;;;;1.48;0.63;;;11.50;99.90;;;10.14;100.00;101284.44;4980629;28;20028;-82
2021/11/20 03:09:42;;;;;;;9.60;1.17;;;11.50;99.90;;;10.15;100.00;101270.34;4939568;28;20041;-83
2021/11/20 03:12:17;;;;;;;8.15;1.58;;;11.60;99.90;;;10.11;100.00;101268.72;4938969;28;20042;-83
2021/11/20 03:14:43;;;;;;;11.60;1.20;;;11.50;99.90;;;10.07;100.00;101263.59;4939419;28;20029;-83
2021/11/20 03:17:20;;;;;;;2.25;0.80;;;11.50;99.90;;;10.10;100.00;101261.75;4967445;28;20032;-82
2021/11/20 03:19:49;;;;;;;6.68;0.95;;;11.60;99.90;;;10.13;100.00;101254.63;4911995;28;20034;-82
2021/11/20 03:22:45;;;;;;;3.35;0.70;;;11.50;99.90;;;10.12;100.00;101244.16;4906731;28;20038;-83
2021/11/20 03:25:18;;;;;;;6.18;0.65;;;11.50;99.90;;;10.18;100.00;101244.78;4944642;28;20404;-82
2021/11/20 03:27:44;;;;;;;3.22;0.98;;;11.60;99.90;;;10.20;100.00;101232.44;4946083;28;20029;-83
2021/11/20 03:30:11;;;;;;;3.60;0.40;;;11.60;99.90;;;10.18;100.00;101222.88;4932114;28;20041;-82
2021/11/20 03:32:38;;;;;;;3.45;0.50;;;11.60;99.90;;;10.13;100.00;101233.59;4965111;28;20028;-84
2021/11/20 03:35:14;;;;;;;6.72;0.63;;;11.50;99.90;;;10.10;100.00;101232.81;4943169;28;20078;-83
2021/11/20 03:37:40;;;;;;;;;;;11.50;99.90;;;10.12;100.00;101249.41;4943374;28;20037;-83
2021/11/20 03:40:19;;;;;;;1.33;0.38;;;11.50;99.90;;;10.10;100.00;101251.25;4971181;28;20004;-82
2021/11/20 03:42:45;;;;;;;3.20;0.68;;;11.50;99.90;;;10.10;100.00;101259.13;4946341;28;20517;-82
2021/11/20 03:45:22;;;;;;;6.38;0.95;;;11.50;99.90;;;10.08;100.00;101264.44;4977332;28;20025;-84
2021/11/20 03:47:48;;;;;;;5.43;0.77;;;11.50;99.90;;;10.06;100.00;101258.38;5024246;28;20479;-85
2021/11/20 03:50:21;;;;;;;7.45;0.77;;;11.50;99.90;;;10.07;100.00;101262.75;4932533;28;20029;-84
2021/11/20 03:52:48;;;;;;;8.50;0.70;;;11.50;99.90;;;10.06;100.00;101251.38;4993554;28;20026;-83
2021/11/20 03:55:28;;;;;;;7.43;0.98;;;11.50;99.90;;;10.09;100.00;101250.38;4920516;28;20495;-81
2021/11/20 03:57:55;;;;;;;4.22;0.73;;;11.50;99.90;;;10.12;100.00;101249.41;4956257;28;20738;-82
2021/11/20 04:00:29;;;;;;;7.70;0.90;;;11.50;99.90;;;10.09;100.00;101241.66;4943449;28;20029;-83
2021/11/20 04:02:55;;;;;;;3.85;0.50;;;;;;;10.05;100.00;101233.84;4926173;28;20045;-84
2021/11/20 04:05:22;;;;;;;4.60;0.55;;;11.50;99.90;;;10.05;100.00;101227.72;4957672;28;20046;-82
2021/11/20 04:07:50;;;;;;;1.92;0.73;;;11.50;99.90;;;10.13;100.00;101214.28;4961751;28;20021;-83
2021/11/20 04:10:25;;;;;;;1.70;0.43;;;;;;;10.12;100.00;101217.84;4921604;28;20046;-83
2021/11/20 04:12:51;;;;;;;6.72;0.75;;;11.50;99.90;;;10.09;100.00;101207.44;4989255;28;20028;-82
2021/11/20 04:15:25;;;;;;;3.47;0.65;;;11.50;99.90;;;10.09;100.00;101221.44;4927886;28;20026;-83
2021/11/20 04:17:51;;;;;;;1.25;0.40;;;11.50;99.90;;;10.10;100.00;101217.88;4957976;28;20460;-82
2021/11/20 04:20:21;;;;;;;5.90;0.63;;;11.50;99.90;;;10.04;100.00;101208.47;4929765;28;20341;-82
2021/11/20 04:22:52;;;;;;;4.20;0.50;;;11.50;99.90;;;10.06;100.00;101214.53;4925464;28;20032;-83
2021/11/20 04:25:22;;;;;;;3.78;0.55;;;;;;;10.03;100.00;101214.63;4914434;28;20026;-82
2021/11/20 04:27:48;;;;;;;3.53;0.50;;;11.50;99.90;;;10.10;100.00;101215.25;4968099;28;20041;-83
2021/11/20 04:30:24;;;;;;;0.93;0.35;;;11.50;99.90;;;9.99;100.00;101197.22;4965510;28;20033;-82
2021/11/20 04:32:51;;;;;;;;;;;11.40;99.90;;;10.00;100.00;101209.50;4929409;28;20037;-84
2021/11/20 04:35:24;;;;;;;3.15;0.65;;;11.50;99.90;;;10.00;100.00;101206.84;4974609;28;20405;-83
2021/11/20 04:37:51;;;;;;;1.52;0.50;;;11.50;99.90;;;10.05;100.00;101206.69;4929615;28;20035;-82
2021/11/20 04:40:18;;;;;;;7.95;0.70;;;11.50;99.90;;;10.00;100.00;101198.97;4963319;28;20480;-83
2021/11/20 04:42:45;;;;;;;4.60;0.55;;;11.40;99.90;;;9.97;100.00;101209.59;4936333;28;20052;-83
2021/11/20 04:45:18;;;;;;;4.82;0.60;;;11.40;99.90;;;9.98;100.00;101216.56;4961999;28;20041;-83
2021/11/20 04:47:45;;;;;;;2.13;0.47;;;11.40;99.90;;;9.96;100.00;101214.91;4948255;28;20032;-82
2021/11/20 04:50:14;;;;;;;1.85;0.55;;;11.40;99.90;;;9.96;100.00;101202.63;4958420;28;20024;-82
2021/11/20 04:52:45;;;;;;;2.13;0.40;;;11.40;99.90;;;9.97;100.00;101216.63;4919902;28;20147;-83
2021/11/20 04:55:15;;;;;;;2.45;0.30;;;11.40;99.90;;;9.90;100.00;101196.72;4950788;28;20033;-83
2021/11/20 04:57:42;;;;;;;5.60;0.57;;;11.30;99.90;;;9.91;100.00;101199.28;4947645;28;20037;-83
2021/11/20 05:00:32;;;;;;;4.78;0.40;;;11.30;99.90;;;9.89;100.00;101185.31;4909610;28;20025;-83
2021/11/20 05:02:59;;;;;;;6.60;0.50;;;11.30;99.90;;;9.97;100.00;101183.28;4931127;28;20090;-82
2021/11/20 05:05:25;;;;;;;1.33;0.40;;;11.30;99.90;;;9.90;100.00;101168.63;4939530;28;20031;-83
2021/11/20 05:08:01;;;;;;;0.90;0.35;;;11.30;99.90;;;9.91;100.00;101172.97;4962353;28;20033;-83
2021/11/20 05:10:27;;;;;;;4.28;0.50;;;11.40;99.90;;;9.98;100.00;101158.69;4942069;28;20037;-83
2021/11/20 05:12:54;;;;;;;1.10;0.30;;;11.40;99.90;;;9.95;100.00;101158.78;5014134;28;20390;-84
2021/11/20 05:15:27;;;;;;;2.72;0.60;;;11.30;99.90;;;9.96;100.00;101160.53;4953573;28;20546;-84
2021/11/20 05:17:53;;;;;;;3.75;0.40;;;11.30;99.90;;;9.93;100.00;101159.78;4902027;28;20075;-83
2021/11/20 05:20:20;;;;;;;5.90;0.63;;;11.30;99.90;;;9.88;100.00;101173.09;4961798;28;20034;-83
2021/11/20 05:22:46;;;;;;;2.65;0.40;;;11.30;99.90;;;9.88;100.00;101191.50;4906725;28;20461;-84
2021/11/20 05:25:20;;;;;;;1.95;0.35;;;;;;;9.85;100.00;101186.38;4958572;28;20112;-84
2021/11/20 05:27:48;;;;;;;1.23;0.43;;;11.30;99.90;;;9.85;100.00;101194.25;4977972;28;20032;-83
2021/11/20 05:30:25;;;;;;;5.03;0.52;;;11.20;99.90;;;9.79;100.00;101202.38;4937962;28;20048;-83
2021/11/20 05:32:53;;;;;;;8.38;0.65;;;11.20;99.90;;;9.74;100.00;101223.56;4924021;28;20036;-83
2021/11/20 05:35:26;;;;;;;4.43;0.30;;;11.30;99.90;;;9.74;100.00;101222.69;4933561;28;20032;-83
2021/11/20 05:37:53;;;;;;;2.70;0.60;;;11.20;99.90;;;9.75;100.00;101230.53;4944332;28;20476;-83
2021/11/20 05:40:20;;;;;;;4.13;0.55;;;11.20;99.90;;;9.80;100.00;101223.34;4927711;28;20489;-83
2021/11/20 05:43:01;;;;;;;2.20;0.38;;;11.10;99.90;;;9.72;100.00;101199.09;4945142;28;20071;-83
2021/11/20 05:45:35;;;;;;;1.92;0.50;;;11.20;99.90;;;9.71;100.00;101194.75;4934528;28;20041;-83
2021/11/20 05:48:01;;;;;;;5.13;0.50;;;11.20;99.90;;;9.72;100.00;101203.47;4921188;28;20696;-83
2021/11/20 05:50:29;;;;;;;5.35;0.60;;;11.20;99.90;;;9.73;100.00;101207.84;4951812;28;20036;-83
2021/11/20 05:53:02;;;;;;;1.98;0.40;;;11.10;99.90;;;9.70;100.00;101208.81;4947194;28;20089;-84
2021/11/20 05:55:31;;;;;;;3.13;0.43;;;11.10;99.90;;;9.69;100.00;101235.16;4932323;28;20116;-82
2021/11/20 05:57:58;;;;;;;1.48;0.43;;;11.10;99.90;;;9.68;100.00;101255.34;4960311;28;20041;-84
2021/11/20 06:00:31;;;;;;;0.70;0.35;;;11.10;99.90;;;9.64;100.00;101251.09;4929937;28;20041;-84
2021/11/20 06:03:00;;;;;;;6.07;0.60;;;11.10;99.90;;;9.61;100.00;101261.69;4967831;28;20040;-84
2021/11/20 06:05:41;;;;;;;3.88;0.57;;;11.00;99.90;;;9.60;100.00;101274.00;4965049;28;20480;-83
2021/11/20 06:08:15;;;;;;;5.25;0.45;;;11.00;99.90;;;9.56;100.00;101287.28;4943446;28;20044;-83
2021/11/20 06:10:43;;;;;;;5.10;0.57;;;11.00;99.90;;;9.56;100.00;101290.78;4953290;28;20033;-84
2021/11/20 06:13:11;;;;;;;1.67;0.50;;;11.00;99.90;;;9.52;100.00;101304.06;4951651;28;20033;-83
2021/11/20 06:15:44;;;;;;;6.80;0.63;;;11.00;99.90;;;9.51;100.00;101312.88;4945852;28;20132;-83
2021/11/20 06:18:11;;;;;;;9.73;1.65;;;11.00;99.90;;;9.53;100.00;101311.94;4931823;28;20028;-83
2021/11/20 06:20:44;;;;;;;2.42;0.75;;;11.00;99.90;;;9.56;100.00;101318.84;4914360;28;20030;-84
2021/11/20 06:23:11;;;;;;;3.80;0.82;;;;;;;9.49;100.00;101323.44;4927365;28;20046;-83
2021/11/20 06:25:38;;;;;;;1.23;0.75;;;10.90;99.90;;;9.45;100.00;101306.91;4940431;28;20034;-83
2021/11/20 06:28:05;;;;;;;3.70;0.80;;;10.90;99.90;;;9.45;100.00;101317.41;4958353;28;20032;-84
2021/11/20 06:30:43;;;;;;;3.50;0.90;;;10.90;99.90;;;9.43;100.00;101313.13;4927790;28;20040;-83
2021/11/20 06:33:09;;;;;;;3.20;1.10;;;10.90;99.90;;;9.49;100.00;101318.19;4959007;28;20029;-84
2021/11/20 06:35:43;;;;;;;2.72;0.85;;;11.00;99.90;;;9.55;100.00;101318.00;4933443;28;21609;-84
2021/11/20 06:38:09;;;;;;;4.53;1.42;;;11.00;99.90;;;9.49;100.00;101310.31;4942601;28;20518;-83
2021/11/20 06:40:51;;;;;;;4.82;1.20;;;10.90;99.90;;;9.49;100.00;101307.69;4934662;28;20037;-82
2021/11/20 06:43:26;;;;;;;1.67;0.70;;;10.90;99.90;;;9.49;100.00;101288.41;4979804;28;20122;-84
2021/11/20 06:45:58;;;;;;;5.03;1.05;;;10.90;99.90;;;9.54;100.00;101281.22;4940127;28;20497;-84
2021/11/20 06:48:32;;;;;;;2.05;1.10;;;10.90;99.90;;;9.57;100.00;101254.84;4926466;28;20118;-83
2021/11/20 06:50:59;;;;;;;0.73;0.70;;;10.90;99.90;;;9.50;100.00;101241.03;4917177;28;20032;-84
2021/11/20 06:53:35;;;;;;;4.90;0.95;;;10.90;99.90;;;9.51;100.00;101227.00;4938650;28;20040;-83
2021/11/20 06:56:02;;;;;;;2.42;0.80;;;10.90;99.90;;;9.55;100.00;101239.13;4916085;28;20068;-83
2021/11/20 07:01:20;;;;;;;3.55;1.02;;;11.00;99.90;;;9.56;100.00;101196.13;4921959;28;20037;-84
2021/11/20 07:04:05;;;;;;;6.43;1.45;;;10.30;99.90;;;9.61;100.00;101195.97;4943063;28;20050;-83
2021/11/20 07:07:13;;;;;;;1.67;0.90;;;11.00;99.90;;;9.60;100.00;101183.75;4939502;28;20045;-83
2021/11/20 07:09:40;;;;;;;3.75;1.15;;;11.00;99.90;;;9.58;100.00;101189.06;4954971;28;20120;-83
2021/11/20 07:12:16;;;;;;;5.82;1.30;;;11.00;99.90;;;9.57;100.00;101186.50;4938951;28;20079;-84
2021/11/20 07:14:42;;;;;;;2.33;1.02;;;11.00;99.90;;;9.54;100.00;101203.22;4952605;28;20048;-84
2021/11/20 07:17:08;;;;;;;1.48;0.88;;;10.90;99.90;;;9.49;100.00;101220.94;4946505;28;20033;-84
2021/11/20 07:19:34;;;;;;;2.67;0.90;;;10.90;99.90;;;9.45;100.00;101235.94;4946187;28;20044;-83
2021/11/20 07:22:06;;;;;;;3.50;0.98;;;;;;;9.43;100.00;101271.06;4938695;28;20067;-84
2021/11/20 07:24:32;;;;;;;2.45;1.13;;;10.80;99.90;;;9.39;100.00;101277.34;4933155;28;20527;-84
2021/11/20 07:26:58;;;;;;;6.35;1.30;;;10.80;99.90;;;9.34;100.00;101297.66;4934682;28;20041;-84
2021/11/20 07:29:24;;;;;;;4.45;1.55;;;10.80;99.90;;;9.36;100.00;101306.34;4918321;28;20021;-84
2021/11/20 07:31:50;;;;;;;2.55;1.30;;;10.80;99.90;;;9.43;100.00;101313.13;4952938;28;20031;-84
2021/11/20 07:34:25;;;;;;;4.55;1.23;;;10.90;99.90;;;9.44;100.00;101306.97;4946225;28;20108;-84
2021/11/20 07:36:51;;;;;;;4.05;1.30;;;10.80;99.90;;;9.45;100.00;101295.53;4917364;28;20044;-83
2021/11/20 07:39:18;;;;;;;1.73;0.98;;;10.90;99.90;;;9.44;100.00;101280.69;4947965;28;20052;-82
2021/11/20 07:41:51;;;;;;;3.53;1.10;;;10.90;99.90;;;9.45;100.00;101278.00;4919226;28;20058;-84
2021/11/20 07:44:17;;;;;;;1.20;1.10;;;10.90;99.90;;;9.46;100.00;101276.25;4928875;28;20045;-86
2021/11/20 07:46:43;;;;;;;2.45;0.95;;;10.90;99.90;;;9.45;100.00;101249.06;4878772;28;20046;-85
2021/11/20 07:49:09;;;;;;;1.77;1.08;;;11.00;99.90;;;9.55;100.00;101241.75;4917808;28;20385;-84
2021/11/20 07:51:45;;;;;;;3.53;1.05;;;11.00;99.90;;;9.55;100.00;101198.84;4948210;28;20026;-84
2021/11/20 07:54:12;;;;;;;0.95;0.80;;;11.00;99.90;;;9.56;100.00;101175.09;4925119;28;20601;-84
2021/11/20 07:56:45;;;;;;;2.13;1.00;;;11.00;99.90;;;9.58;100.00;101160.13;4959577;28;20665;-85
2021/11/20 07:59:14;;;;;;;7.45;1.38;;;;;;;9.64;100.00;101136.25;4957007;28;20028;-83
2021/11/20 08:01:41;;;;;;;4.07;1.30;;;11.10;99.90;;;9.62;100.00;101124.09;4938433;28;20548;-84
2021/11/20 08:04:15;;;;;;;1.23;0.90;;;11.10;99.90;;;9.64;100.00;101125.75;4937080;28;20029;-83
2021/11/20 08:06:42;;;;;;;2.50;0.80;;;11.10;99.90;;;9.63;100.00;101105.63;4950911;28;20527;-85
2021/11/20 08:09:10;;;;;;;3.95;0.82;;;11.10;99.90;;;9.71;100.00;101094.81;4935151;28;20497;-84
2021/11/20 08:11:42;;;;;;;2.78;0.82;;;;;;;9.74;100.00;101101.72;4943690;28;20044;-84
2021/11/20 08:14:09;;;;;;;3.13;0.90;;;11.20;99.90;;;9.76;100.00;101090.25;4959448;28;20053;-84
2021/11/20 08:16:38;;;;;;;7.28;1.35;;;11.20;99.90;;;9.80;100.00;101090.97;4938330;28;20097;-83
2021/11/20 08:19:14;;;;;;;2.22;0.80;;;11.20;99.90;;;9.78;100.00;101087.56;4975289;28;20034;-86
2021/11/20 08:21:40;;;;;;;1.97;0.80;;;11.20;99.90;;;9.82;100.00;101074.22;4942450;28;20025;-83
2021/11/20 08:24:14;;;;;;;2.03;0.63;;;11.20;99.90;;;9.80;100.00;101068.16;4942779;28;20299;-83
2021/11/20 08:26:43;;;;;;;2.50;0.85;;;11.30;99.90;;;9.83;100.00;101067.22;4974464;28;20034;-80
2021/11/20 08:29:19;;;;;;;1.52;0.90;;;11.20;99.90;;;9.81;100.00;101050.63;4940953;28;20539;-79
2021/11/20 08:31:48;;;;;;;3.50;0.63;;;11.20;99.90;;;9.85;100.00;101057.50;5004254;28;20060;-80
2021/11/20 08:34:26;;;;;;;4.47;0.75;;;11.30;99.90;;;9.98;100.00;101058.72;4888337;28;20421;-82
2021/11/20 08:36:52;;;;;;;3.15;0.90;;;11.30;99.90;;;9.99;100.00;101042.00;4943348;28;20021;-82
2021/11/20 08:39:19;;;;;;;4.53;0.95;;;11.30;99.90;;;9.95;100.00;101035.16;4958286;28;20123;-81
2021/11/20 08:41:53;;;;;;;4.60;2.13;;;11.20;99.90;;;9.86;100.00;101017.97;4956301;28;20033;-83
2021/11/20 08:44:20;;;;;;;2.75;0.80;;;11.20;99.90;;;9.87;100.00;101021.47;5006225;28;20116;-82
2021/11/20 08:46:50;;;;;;;2.25;0.93;;;12.00;99.90;;;9.89;100.00;101021.38;4922285;28;20475;-81
2021/11/20 08:49:19;;;;;;;2.45;0.63;;;11.20;99.90;;;9.93;100.00;101105.38;4973918;28;20030;-82
2021/11/20 08:51:47;;;;;;;6.47;1.50;;;11.30;99.90;;;10.07;100.00;101097.84;4992399;28;20026;-82
2021/11/20 08:54:14;;;;;;;1.70;0.65;;;11.50;99.90;;;10.23;100.00;101089.34;4978563;28;20033;-82
2021/11/20 08:56:47;;;;;;;7.35;0.98;;;11.50;99.90;;;10.26;100.00;101090.09;4982878;28;20032;-82
2021/11/20 08:59:20;;;;;;;3.35;0.80;;;11.50;99.90;;;10.24;100.00;101101.59;4934740;28;20068;-83
2021/11/20 09:02:26;;;;;;;2.50;0.75;;;11.50;99.90;;;10.22;100.00;101077.97;4946174;28;20045;-82
2021/11/20 09:05:30;;;;;;;7.22;1.05;;;11.50;99.90;;;10.24;100.00;101117.38;4937984;28;20044;-82
2021/11/20 09:08:33;;;;;;;4.93;0.70;;;11.70;99.90;;;10.48;100.00;101120.84;4913651;28;20029;-83
2021/11/20 09:11:28;;;;;;;6.93;1.40;;;11.80;99.90;;;10.67;100.00;101120.97;4922368;28;20040;-83
2021/11/20 09:14:10;;;;;;;10.10;0.90;;;12.40;99.90;;;10.62;100.00;101099.22;4935246;28;20096;-82
2021/11/20 09:16:40;;;;;;;5.05;1.00;;;11.90;99.90;;;10.55;100.00;101098.63;4934577;28;20049;-82
2021/11/20 09:19:10;;;;;;;3.90;0.93;;;11.80;99.90;;;10.55;100.00;101095.13;4951283;28;20522;-81
2021/11/20 09:21:40;;;;;;;6.88;1.10;;;11.80;99.90;;;10.41;100.00;101095.66;4975103;28;20031;-82
2021/11/20 09:24:23;;;;;;;5.05;1.02;;;11.70;99.90;;;10.47;100.00;101092.78;4945507;28;20046;-81
2021/11/20 09:26:53;;;;;;;4.00;0.93;;;11.70;99.90;;;10.46;100.00;101105.09;4935345;28;20025;-81
2021/11/20 09:29:23;;;;;;;8.52;1.42;;;11.70;99.90;;;10.42;100.00;101092.13;4963488;28;20029;-83
2021/11/20 09:31:54;;;;;;;7.18;1.20;;;11.80;99.90;;;10.50;100.00;101099.75;4916157;28;20585;-82
2021/11/20 09:34:42;;;;;;;10.57;1.50;;;11.70;99.90;;;10.40;100.00;101086.91;4942016;28;20033;-82
2021/11/20 09:37:40;;;;;;;10.68;1.45;;;11.60;99.90;;;10.27;100.00;101096.19;4919266;28;20140;-82
2021/11/20 09:40:19;;;;;;;7.30;1.17;;;11.60;99.90;;;10.19;100.00;101095.63;4948682;28;20036;-83
2021/11/20 09:43:31;;;;;;;;;;;;;;;;;;;;;
2021/11/20 09:46:28;;;;;;;15.77;1.27;;;11.70;99.90;;;10.43;100.00;101107.88;4952035;28;21523;-83
2021/11/20 09:49:17;;;;;;;9.10;1.55;;;11.80;99.90;;;10.53;100.00;101107.50;4959962;28;20028;-83
2021/11/20 09:51:56;;;;;;;9.07;1.38;;;11.80;99.90;;;10.52;100.00;101085.59;4979267;28;20036;-83
2021/11/20 09:54:35;;;;;;;3.17;1.13;;;11.90;99.90;;;10.59;100.00;101104.63;4943856;28;20052;-83
2021/11/20 09:57:25;;;;;;;5.07;1.17;;;11.90;99.90;;;10.52;100.00;101085.59;4925737;28;20253;-83
2021/11/20 10:00:05;;;;;;;13.98;1.45;;;11.80;99.90;;;10.48;100.00;101101.56;4919622;28;20041;-83
2021/11/20 10:02:54;;;;;;;14.93;1.90;;;11.80;99.90;;;10.44;100.00;101096.41;4956790;28;20043;-81
2021/11/20 10:05:48;;;;;;;7.20;1.33;;;11.80;99.90;;;10.53;100.00;101096.97;4948283;28;20054;-82
2021/11/20 10:08:30;;;;;;;13.82;1.75;;;11.90;99.90;;;10.60;100.00;101093.16;4967028;28;20407;-82
2021/11/20 10:11:50;;;;;;;5.22;1.42;;;11.90;99.90;;;10.61;100.00;101079.09;4892258;28;20053;-82
2021/11/20 10:15:02;;;;;;;4.22;1.42;;;11.90;99.90;;;10.55;100.00;101074.06;4958166;28;20029;-81
2021/11/20 10:17:48;;;;;;;12.57;1.65;;;11.80;99.90;;;10.46;100.00;101060.34;4959640;28;20049;-82
2021/11/20 10:21:06;;;;;;;15.67;1.93;;;11.80;99.90;;;10.53;100.00;101058.31;4986159;28;20056;-81
2021/11/20 10:24:25;;;;;;;7.53;1.52;;;11.80;99.90;;;10.56;100.00;101059.97;4985862;28;20450;-80
2021/11/20 10:27:43;;;;;;;6.90;1.60;;;11.90;99.90;;;10.58;100.00;101051.09;4930051;28;20060;-82
2021/11/20 10:30:38;;;;;;;12.60;1.63;;;12.00;99.90;;;10.64;100.00;101044.72;4957530;28;20037;-81
2021/11/20 10:33:28;;;;;;;19.35;2.45;;;11.90;99.90;;;10.58;100.00;101039.69;4940874;28;20034;-81
2021/11/20 10:36:32;;;;;;;7.85;2.00;;;11.90;99.90;;;10.56;100.00;101031.00;4933515;28;20033;-81
2021/11/20 10:39:19;;;;;;;9.50;2.30;;;11.90;99.90;;;10.52;100.00;101037.31;4950438;28;20125;-82
2021/11/20 10:42:08;;;;;;;10.93;2.20;;;11.90;99.90;;;10.49;100.00;101016.38;4979914;28;20051;-82
2021/11/20 10:45:05;;;;;;;11.57;1.83;;;11.80;99.90;;;10.47;100.00;101032.25;4952228;28;20148;-81
2021/11/20 10:47:43;;;;;;;13.07;2.10;;;11.80;99.90;;;10.44;100.00;101024.47;4930120;28;20062;-81
2021/11/20 10:50:34;;;;;;;9.30;2.28;;;11.80;99.90;;;10.44;100.00;100995.53;4962931;28;20042;-82
2021/11/20 10:53:36;;;;;;;8.25;2.15;;;11.80;99.90;;;10.45;100.00;101003.38;4970633;28;20039;-82
2021/11/20 10:56:34;;;;;;;5.20;1.83;;;11.80;99.90;;;10.44;100.00;100991.09;4983982;28;20033;-82
2021/11/20 10:59:31;;;;;;;10.82;1.85;;;11.80;99.90;;;10.44;100.00;100988.47;4957120;28;20474;-81